sensor_id;sensor_type;location;lat;lon;timestamp;P1;durP1;ratioP1;P2;durP2;ratioP2
64936;SDS011;51452;47.698;19.050;2023-06-14T00:02:06;7.38;;;4.53;;
64936;SDS011;51452;47.698;19.050;2023-06-14T00:04:33;9.63;;;4.78;;
64936;SDS011;51452;47.698;19.050;2023-06-14T00:06:59;6.35;;;4.50;;
64936;SDS011;51452;47.698;19.050;2023-06-14T00:09:25;9.82;;;4.90;;
64936;SDS011;51452;47.698;19.050;2023-06-14T00:11:50;7.55;;;4.95;;
64936;SDS011;51452;47.698;19.050;2023-06-14T00:14:16;8.07;;;5.03;;
64936;SDS011;51452;47.698;19.050;2023-06-14T00:16:41;10.48;;;5.15;;
64936;SDS011;51452;47.698;19.050;2023-06-14T00:19:08;7.57;;;5.05;;
64936;SDS011;51452;47.698;19.050;2023-06-14T00:21:35;8.30;;;5.28;;
64936;SDS011;51452;47.698;19.050;2023-06-14T00:24:01;10.50;;;6.57;;
64936;SDS011;51452;47.698;19.050;2023-06-14T00:26:27;10.02;;;5.65;;
64936;SDS011;51452;47.698;19.050;2023-06-14T00:28:53;10.02;;;5.88;;
64936;SDS011;51452;47.698;19.050;2023-06-14T00:31:18;12.10;;;5.90;;
64936;SDS011;51452;47.698;19.050;2023-06-14T00:33:44;9.75;;;5.68;;
64936;SDS011;51452;47.698;19.050;2023-06-14T00:36:10;9.43;;;5.82;;
64936;SDS011;51452;47.698;19.050;2023-06-14T00:38:35;9.70;;;5.95;;
64936;SDS011;51452;47.698;19.050;2023-06-14T00:41:00;10.55;;;6.05;;
64936;SDS011;51452;47.698;19.050;2023-06-14T00:43:26;8.80;;;5.88;;
64936;SDS011;51452;47.698;19.050;2023-06-14T00:45:51;8.30;;;5.28;;
64936;SDS011;51452;47.698;19.050;2023-06-14T00:48:17;11.20;;;6.35;;
64936;SDS011;51452;47.698;19.050;2023-06-14T00:50:43;8.25;;;5.47;;
64936;SDS011;51452;47.698;19.050;2023-06-14T00:53:11;8.90;;;5.32;;
64936;SDS011;51452;47.698;19.050;2023-06-14T00:55:37;8.45;;;5.63;;
64936;SDS011;51452;47.698;19.050;2023-06-14T00:58:03;10.10;;;6.00;;
64936;SDS011;51452;47.698;19.050;2023-06-14T01:00:28;10.52;;;6.50;;
64936;SDS011;51452;47.698;19.050;2023-06-14T01:02:54;9.02;;;6.18;;
64936;SDS011;51452;47.698;19.050;2023-06-14T01:05:20;7.72;;;5.22;;
64936;SDS011;51452;47.698;19.050;2023-06-14T01:13:35;9.55;;;5.90;;
64936;SDS011;51452;47.698;19.050;2023-06-14T01:16:03;12.38;;;6.85;;
64936;SDS011;51452;47.698;19.050;2023-06-14T01:18:30;13.05;;;7.00;;
64936;SDS011;51452;47.698;19.050;2023-06-14T01:20:57;9.52;;;6.10;;
64936;SDS011;51452;47.698;19.050;2023-06-14T01:23:23;11.65;;;6.55;;
64936;SDS011;51452;47.698;19.050;2023-06-14T01:25:49;13.32;;;6.63;;
64936;SDS011;51452;47.698;19.050;2023-06-14T01:28:19;9.98;;;6.93;;
64936;SDS011;51452;47.698;19.050;2023-06-14T01:30:53;12.27;;;7.10;;
64936;SDS011;51452;47.698;19.050;2023-06-14T01:33:23;12.50;;;6.90;;
64936;SDS011;51452;47.698;19.050;2023-06-14T01:35:52;11.45;;;6.40;;
64936;SDS011;51452;47.698;19.050;2023-06-14T01:38:20;12.13;;;7.20;;
64936;SDS011;51452;47.698;19.050;2023-06-14T01:40:48;10.05;;;6.50;;
64936;SDS011;51452;47.698;19.050;2023-06-14T01:43:16;11.65;;;7.28;;
64936;SDS011;51452;47.698;19.050;2023-06-14T01:45:42;10.57;;;6.25;;
64936;SDS011;51452;47.698;19.050;2023-06-14T01:48:10;11.70;;;7.38;;
64936;SDS011;51452;47.698;19.050;2023-06-14T01:50:36;11.18;;;7.18;;
64936;SDS011;51452;47.698;19.050;2023-06-14T01:53:02;10.23;;;6.57;;
64936;SDS011;51452;47.698;19.050;2023-06-14T01:55:27;10.80;;;6.28;;
64936;SDS011;51452;47.698;19.050;2023-06-14T01:57:53;11.65;;;7.10;;
64936;SDS011;51452;47.698;19.050;2023-06-14T02:00:19;11.02;;;6.47;;
64936;SDS011;51452;47.698;19.050;2023-06-14T02:02:46;8.95;;;6.10;;
64936;SDS011;51452;47.698;19.050;2023-06-14T02:05:11;9.68;;;6.00;;
64936;SDS011;51452;47.698;19.050;2023-06-14T02:07:37;7.97;;;5.43;;
64936;SDS011;51452;47.698;19.050;2023-06-14T02:10:03;9.23;;;5.65;;
64936;SDS011;51452;47.698;19.050;2023-06-14T02:12:30;9.32;;;5.32;;
64936;SDS011;51452;47.698;19.050;2023-06-14T02:14:56;9.00;;;5.55;;
64936;SDS011;51452;47.698;19.050;2023-06-14T02:17:23;12.27;;;5.82;;
64936;SDS011;51452;47.698;19.050;2023-06-14T02:19:48;8.98;;;5.57;;
64936;SDS011;51452;47.698;19.050;2023-06-14T02:22:14;12.07;;;6.90;;
64936;SDS011;51452;47.698;19.050;2023-06-14T02:24:40;10.98;;;6.18;;
64936;SDS011;51452;47.698;19.050;2023-06-14T02:27:07;11.88;;;7.15;;
64936;SDS011;51452;47.698;19.050;2023-06-14T02:29:35;10.02;;;6.13;;
64936;SDS011;51452;47.698;19.050;2023-06-14T02:32:01;11.02;;;6.40;;
64936;SDS011;51452;47.698;19.050;2023-06-14T02:34:26;10.50;;;6.35;;
64936;SDS011;51452;47.698;19.050;2023-06-14T02:36:52;10.05;;;6.45;;
64936;SDS011;51452;47.698;19.050;2023-06-14T02:39:17;11.25;;;6.63;;
64936;SDS011;51452;47.698;19.050;2023-06-14T02:41:45;11.88;;;6.63;;
64936;SDS011;51452;47.698;19.050;2023-06-14T02:44:12;10.73;;;6.43;;
64936;SDS011;51452;47.698;19.050;2023-06-14T02:46:38;11.98;;;6.15;;
64936;SDS011;51452;47.698;19.050;2023-06-14T02:49:04;11.77;;;6.35;;
64936;SDS011;51452;47.698;19.050;2023-06-14T02:51:30;11.57;;;7.30;;
64936;SDS011;51452;47.698;19.050;2023-06-14T02:53:55;11.82;;;6.95;;
64936;SDS011;51452;47.698;19.050;2023-06-14T02:56:20;12.75;;;6.93;;
64936;SDS011;51452;47.698;19.050;2023-06-14T02:58:47;10.38;;;6.57;;
64936;SDS011;51452;47.698;19.050;2023-06-14T03:01:13;14.20;;;7.38;;
64936;SDS011;51452;47.698;19.050;2023-06-14T03:03:39;11.73;;;7.13;;
64936;SDS011;51452;47.698;19.050;2023-06-14T03:06:05;12.57;;;6.47;;
64936;SDS011;51452;47.698;19.050;2023-06-14T03:08:31;13.50;;;7.15;;
64936;SDS011;51452;47.698;19.050;2023-06-14T03:11:03;11.70;;;7.13;;
64936;SDS011;51452;47.698;19.050;2023-06-14T03:13:30;9.95;;;6.65;;
64936;SDS011;51452;47.698;19.050;2023-06-14T03:15:57;10.57;;;6.43;;
64936;SDS011;51452;47.698;19.050;2023-06-14T03:18:22;10.25;;;6.75;;
64936;SDS011;51452;47.698;19.050;2023-06-14T03:20:50;10.77;;;5.97;;
64936;SDS011;51452;47.698;19.050;2023-06-14T03:23:16;13.93;;;7.30;;
64936;SDS011;51452;47.698;19.050;2023-06-14T03:25:42;12.27;;;6.78;;
64936;SDS011;51452;47.698;19.050;2023-06-14T03:28:08;11.55;;;7.10;;
64936;SDS011;51452;47.698;19.050;2023-06-14T03:30:33;13.40;;;7.00;;
64936;SDS011;51452;47.698;19.050;2023-06-14T03:32:59;9.85;;;6.03;;
64936;SDS011;51452;47.698;19.050;2023-06-14T03:35:26;13.88;;;6.97;;
64936;SDS011;51452;47.698;19.050;2023-06-14T03:37:51;14.88;;;7.88;;
64936;SDS011;51452;47.698;19.050;2023-06-14T03:40:17;11.85;;;7.22;;
64936;SDS011;51452;47.698;19.050;2023-06-14T03:42:45;9.65;;;6.43;;
64936;SDS011;51452;47.698;19.050;2023-06-14T03:45:10;13.27;;;6.60;;
64936;SDS011;51452;47.698;19.050;2023-06-14T03:47:36;9.68;;;5.97;;
64936;SDS011;51452;47.698;19.050;2023-06-14T03:50:04;11.20;;;6.65;;
64936;SDS011;51452;47.698;19.050;2023-06-14T03:52:30;10.98;;;6.38;;
64936;SDS011;51452;47.698;19.050;2023-06-14T03:54:56;11.05;;;6.32;;
64936;SDS011;51452;47.698;19.050;2023-06-14T03:57:22;9.98;;;5.97;;
64936;SDS011;51452;47.698;19.050;2023-06-14T03:59:48;10.55;;;6.63;;
64936;SDS011;51452;47.698;19.050;2023-06-14T04:02:13;11.52;;;6.65;;
64936;SDS011;51452;47.698;19.050;2023-06-14T04:04:43;11.32;;;6.63;;
64936;SDS011;51452;47.698;19.050;2023-06-14T04:07:13;10.00;;;6.45;;
64936;SDS011;51452;47.698;19.050;2023-06-14T04:09:44;12.07;;;7.07;;
64936;SDS011;51452;47.698;19.050;2023-06-14T04:12:10;11.75;;;6.78;;
64936;SDS011;51452;47.698;19.050;2023-06-14T04:14:36;10.32;;;6.43;;
64936;SDS011;51452;47.698;19.050;2023-06-14T04:17:02;9.98;;;6.47;;
64936;SDS011;51452;47.698;19.050;2023-06-14T04:19:27;12.13;;;6.57;;
64936;SDS011;51452;47.698;19.050;2023-06-14T04:21:53;10.13;;;6.05;;
64936;SDS011;51452;47.698;19.050;2023-06-14T04:24:18;16.45;;;7.05;;
64936;SDS011;51452;47.698;19.050;2023-06-14T04:26:44;11.38;;;6.47;;
64936;SDS011;51452;47.698;19.050;2023-06-14T04:29:10;10.45;;;6.70;;
64936;SDS011;51452;47.698;19.050;2023-06-14T04:31:39;9.35;;;6.35;;
64936;SDS011;51452;47.698;19.050;2023-06-14T04:34:05;11.63;;;6.75;;
64936;SDS011;51452;47.698;19.050;2023-06-14T04:36:34;11.43;;;6.35;;
64936;SDS011;51452;47.698;19.050;2023-06-14T04:39:02;10.57;;;6.53;;
64936;SDS011;51452;47.698;19.050;2023-06-14T04:41:31;9.65;;;6.40;;
64936;SDS011;51452;47.698;19.050;2023-06-14T04:44:00;10.57;;;5.68;;
64936;SDS011;51452;47.698;19.050;2023-06-14T04:46:27;10.48;;;6.15;;
64936;SDS011;51452;47.698;19.050;2023-06-14T04:48:53;10.20;;;5.93;;
64936;SDS011;51452;47.698;19.050;2023-06-14T04:51:19;8.23;;;5.82;;
64936;SDS011;51452;47.698;19.050;2023-06-14T04:53:47;8.70;;;5.75;;
64936;SDS011;51452;47.698;19.050;2023-06-14T04:56:14;8.73;;;6.30;;
64936;SDS011;51452;47.698;19.050;2023-06-14T04:58:41;9.07;;;5.95;;
64936;SDS011;51452;47.698;19.050;2023-06-14T05:01:07;9.52;;;6.30;;
64936;SDS011;51452;47.698;19.050;2023-06-14T05:03:34;11.73;;;6.32;;
64936;SDS011;51452;47.698;19.050;2023-06-14T05:05:59;8.27;;;5.63;;
64936;SDS011;51452;47.698;19.050;2023-06-14T05:08:25;10.60;;;6.18;;
64936;SDS011;51452;47.698;19.050;2023-06-14T05:10:51;11.55;;;5.82;;
64936;SDS011;51452;47.698;19.050;2023-06-14T05:19:48;11.07;;;6.30;;
64936;SDS011;51452;47.698;19.050;2023-06-14T05:22:14;9.48;;;5.95;;
64936;SDS011;51452;47.698;19.050;2023-06-14T05:24:40;9.73;;;5.88;;
64936;SDS011;51452;47.698;19.050;2023-06-14T05:27:06;9.25;;;5.63;;
64936;SDS011;51452;47.698;19.050;2023-06-14T05:29:32;8.77;;;5.40;;
64936;SDS011;51452;47.698;19.050;2023-06-14T05:31:57;9.68;;;5.63;;
64936;SDS011;51452;47.698;19.050;2023-06-14T05:34:22;9.68;;;5.53;;
64936;SDS011;51452;47.698;19.050;2023-06-14T05:36:50;10.57;;;5.70;;
64936;SDS011;51452;47.698;19.050;2023-06-14T05:39:16;7.97;;;5.32;;
64936;SDS011;51452;47.698;19.050;2023-06-14T05:41:42;8.05;;;4.95;;
64936;SDS011;51452;47.698;19.050;2023-06-14T05:44:07;10.57;;;5.60;;
64936;SDS011;51452;47.698;19.050;2023-06-14T05:46:33;7.70;;;5.15;;
64936;SDS011;51452;47.698;19.050;2023-06-14T05:48:59;11.15;;;5.95;;
64936;SDS011;51452;47.698;19.050;2023-06-14T05:51:24;10.15;;;5.32;;
64936;SDS011;51452;47.698;19.050;2023-06-14T05:53:50;8.25;;;5.40;;
64936;SDS011;51452;47.698;19.050;2023-06-14T05:56:15;9.68;;;5.80;;
64936;SDS011;51452;47.698;19.050;2023-06-14T05:58:43;9.02;;;5.50;;
64936;SDS011;51452;47.698;19.050;2023-06-14T06:01:08;9.00;;;5.55;;
64936;SDS011;51452;47.698;19.050;2023-06-14T06:03:34;9.00;;;6.05;;
64936;SDS011;51452;47.698;19.050;2023-06-14T06:05:59;9.88;;;6.40;;
64936;SDS011;51452;47.698;19.050;2023-06-14T06:08:26;9.40;;;5.47;;
64936;SDS011;51452;47.698;19.050;2023-06-14T06:10:51;8.10;;;5.43;;
64936;SDS011;51452;47.698;19.050;2023-06-14T06:13:17;8.98;;;5.70;;
64936;SDS011;51452;47.698;19.050;2023-06-14T06:15:42;9.35;;;5.72;;
64936;SDS011;51452;47.698;19.050;2023-06-14T06:18:08;14.55;;;6.55;;
64936;SDS011;51452;47.698;19.050;2023-06-14T06:20:33;10.73;;;6.30;;
64936;SDS011;51452;47.698;19.050;2023-06-14T06:22:59;11.25;;;6.10;;
64936;SDS011;51452;47.698;19.050;2023-06-14T06:25:25;11.20;;;5.15;;
64936;SDS011;51452;47.698;19.050;2023-06-14T06:27:51;11.80;;;6.07;;
64936;SDS011;51452;47.698;19.050;2023-06-14T06:30:18;7.53;;;5.32;;
64936;SDS011;51452;47.698;19.050;2023-06-14T06:32:43;10.38;;;6.00;;
64936;SDS011;51452;47.698;19.050;2023-06-14T06:35:09;13.57;;;6.22;;
64936;SDS011;51452;47.698;19.050;2023-06-14T06:37:36;13.50;;;5.63;;
64936;SDS011;51452;47.698;19.050;2023-06-14T06:40:01;9.52;;;5.80;;
64936;SDS011;51452;47.698;19.050;2023-06-14T06:42:30;9.43;;;5.75;;
64936;SDS011;51452;47.698;19.050;2023-06-14T06:44:56;11.88;;;6.18;;
64936;SDS011;51452;47.698;19.050;2023-06-14T06:47:22;9.68;;;5.50;;
64936;SDS011;51452;47.698;19.050;2023-06-14T06:49:47;9.73;;;6.35;;
64936;SDS011;51452;47.698;19.050;2023-06-14T06:52:13;10.60;;;6.15;;
64936;SDS011;51452;47.698;19.050;2023-06-14T06:54:38;13.95;;;6.72;;
64936;SDS011;51452;47.698;19.050;2023-06-14T06:57:04;14.70;;;6.80;;
64936;SDS011;51452;47.698;19.050;2023-06-14T06:59:30;10.05;;;6.00;;
64936;SDS011;51452;47.698;19.050;2023-06-14T07:01:56;9.93;;;5.93;;
64936;SDS011;51452;47.698;19.050;2023-06-14T07:04:21;10.35;;;6.28;;
64936;SDS011;51452;47.698;19.050;2023-06-14T07:06:47;13.40;;;7.00;;
64936;SDS011;51452;47.698;19.050;2023-06-14T07:09:12;13.20;;;6.38;;
64936;SDS011;51452;47.698;19.050;2023-06-14T07:11:39;12.20;;;6.43;;
64936;SDS011;51452;47.698;19.050;2023-06-14T07:14:05;9.90;;;6.85;;
64936;SDS011;51452;47.698;19.050;2023-06-14T07:16:30;11.57;;;6.47;;
64936;SDS011;51452;47.698;19.050;2023-06-14T07:18:56;9.90;;;6.20;;
64936;SDS011;51452;47.698;19.050;2023-06-14T07:21:21;12.15;;;6.80;;
64936;SDS011;51452;47.698;19.050;2023-06-14T07:23:47;13.23;;;6.97;;
64936;SDS011;51452;47.698;19.050;2023-06-14T07:26:12;11.93;;;6.55;;
64936;SDS011;51452;47.698;19.050;2023-06-14T07:28:37;10.57;;;6.13;;
64936;SDS011;51452;47.698;19.050;2023-06-14T07:31:03;8.55;;;5.72;;
64936;SDS011;51452;47.698;19.050;2023-06-14T07:33:28;11.98;;;6.45;;
64936;SDS011;51452;47.698;19.050;2023-06-14T07:35:54;12.27;;;6.97;;
64936;SDS011;51452;47.698;19.050;2023-06-14T07:38:20;14.68;;;6.43;;
64936;SDS011;51452;47.698;19.050;2023-06-14T07:40:45;13.18;;;6.18;;
64936;SDS011;51452;47.698;19.050;2023-06-14T07:43:10;11.65;;;6.45;;
64936;SDS011;51452;47.698;19.050;2023-06-14T07:45:36;12.60;;;6.47;;
64936;SDS011;51452;47.698;19.050;2023-06-14T07:48:02;10.77;;;5.93;;
64936;SDS011;51452;47.698;19.050;2023-06-14T07:50:28;18.40;;;6.18;;
64936;SDS011;51452;47.698;19.050;2023-06-14T07:52:54;9.82;;;6.28;;
64936;SDS011;51452;47.698;19.050;2023-06-14T07:55:19;10.77;;;5.78;;
64936;SDS011;51452;47.698;19.050;2023-06-14T07:57:45;9.55;;;5.82;;
64936;SDS011;51452;47.698;19.050;2023-06-14T08:00:11;10.27;;;6.20;;
64936;SDS011;51452;47.698;19.050;2023-06-14T08:02:40;10.40;;;6.05;;
64936;SDS011;51452;47.698;19.050;2023-06-14T08:05:09;8.93;;;5.68;;
64936;SDS011;51452;47.698;19.050;2023-06-14T08:07:38;14.52;;;5.97;;
64936;SDS011;51452;47.698;19.050;2023-06-14T08:10:07;9.88;;;6.13;;
64936;SDS011;51452;47.698;19.050;2023-06-14T08:12:33;10.95;;;5.97;;
64936;SDS011;51452;47.698;19.050;2023-06-14T08:14:59;10.10;;;5.50;;
64936;SDS011;51452;47.698;19.050;2023-06-14T08:17:25;10.98;;;5.55;;
64936;SDS011;51452;47.698;19.050;2023-06-14T08:19:51;15.07;;;6.78;;
64936;SDS011;51452;47.698;19.050;2023-06-14T08:22:19;12.65;;;6.25;;
64936;SDS011;51452;47.698;19.050;2023-06-14T08:24:46;12.15;;;5.88;;
64936;SDS011;51452;47.698;19.050;2023-06-14T08:27:12;8.82;;;5.10;;
64936;SDS011;51452;47.698;19.050;2023-06-14T08:29:38;9.02;;;5.35;;
64936;SDS011;51452;47.698;19.050;2023-06-14T08:32:05;12.43;;;5.28;;
64936;SDS011;51452;47.698;19.050;2023-06-14T08:34:31;11.18;;;5.25;;
64936;SDS011;51452;47.698;19.050;2023-06-14T08:36:57;8.13;;;5.15;;
64936;SDS011;51452;47.698;19.050;2023-06-14T08:39:22;10.05;;;6.00;;
64936;SDS011;51452;47.698;19.050;2023-06-14T08:41:50;8.88;;;5.18;;
64936;SDS011;51452;47.698;19.050;2023-06-14T08:44:17;9.23;;;5.28;;
64936;SDS011;51452;47.698;19.050;2023-06-14T08:46:43;12.23;;;5.13;;
64936;SDS011;51452;47.698;19.050;2023-06-14T08:49:10;8.48;;;5.00;;
64936;SDS011;51452;47.698;19.050;2023-06-14T08:51:37;8.73;;;4.70;;
64936;SDS011;51452;47.698;19.050;2023-06-14T08:54:03;11.13;;;4.80;;
64936;SDS011;51452;47.698;19.050;2023-06-14T08:56:29;10.07;;;5.00;;
64936;SDS011;51452;47.698;19.050;2023-06-14T08:58:57;13.27;;;6.13;;
64936;SDS011;51452;47.698;19.050;2023-06-14T09:01:26;11.40;;;6.03;;
64936;SDS011;51452;47.698;19.050;2023-06-14T09:03:51;9.50;;;4.88;;
64936;SDS011;51452;47.698;19.050;2023-06-14T09:06:20;9.27;;;5.22;;
64936;SDS011;51452;47.698;19.050;2023-06-14T09:08:48;9.25;;;5.30;;
64936;SDS011;51452;47.698;19.050;2023-06-14T09:11:16;8.93;;;4.90;;
64936;SDS011;51452;47.698;19.050;2023-06-14T09:13:44;8.18;;;4.35;;
64936;SDS011;51452;47.698;19.050;2023-06-14T09:16:10;7.65;;;4.22;;
64936;SDS011;51452;47.698;19.050;2023-06-14T09:18:43;7.45;;;4.88;;
64936;SDS011;51452;47.698;19.050;2023-06-14T09:21:12;7.93;;;4.00;;
64936;SDS011;51452;47.698;19.050;2023-06-14T09:23:39;6.70;;;4.20;;
64936;SDS011;51452;47.698;19.050;2023-06-14T09:28:34;5.38;;;3.67;;
64936;SDS011;51452;47.698;19.050;2023-06-14T09:31:01;5.70;;;3.40;;
64936;SDS011;51452;47.698;19.050;2023-06-14T09:33:26;4.75;;;3.40;;
64936;SDS011;51452;47.698;19.050;2023-06-14T09:35:53;4.65;;;2.92;;
64936;SDS011;51452;47.698;19.050;2023-06-14T09:38:19;4.88;;;3.22;;
64936;SDS011;51452;47.698;19.050;2023-06-14T09:40:45;8.50;;;3.30;;
64936;SDS011;51452;47.698;19.050;2023-06-14T09:43:10;4.38;;;3.00;;
64936;SDS011;51452;47.698;19.050;2023-06-14T09:45:36;4.93;;;3.28;;
64936;SDS011;51452;47.698;19.050;2023-06-14T09:48:05;6.55;;;3.05;;
64936;SDS011;51452;47.698;19.050;2023-06-14T09:50:32;8.20;;;3.50;;
64936;SDS011;51452;47.698;19.050;2023-06-14T09:52:59;6.60;;;2.90;;
64936;SDS011;51452;47.698;19.050;2023-06-14T09:55:35;5.63;;;2.90;;
64936;SDS011;51452;47.698;19.050;2023-06-14T09:58:04;6.47;;;3.10;;
64936;SDS011;51452;47.698;19.050;2023-06-14T10:00:31;6.20;;;2.47;;
64936;SDS011;51452;47.698;19.050;2023-06-14T10:03:00;5.63;;;2.67;;
64936;SDS011;51452;47.698;19.050;2023-06-14T10:05:28;3.97;;;2.60;;
64936;SDS011;51452;47.698;19.050;2023-06-14T10:08:03;7.18;;;2.47;;
64936;SDS011;51452;47.698;19.050;2023-06-14T10:10:32;4.13;;;2.47;;
64936;SDS011;51452;47.698;19.050;2023-06-14T10:12:58;4.15;;;2.42;;
64936;SDS011;51452;47.698;19.050;2023-06-14T10:15:28;7.07;;;2.67;;
64936;SDS011;51452;47.698;19.050;2023-06-14T10:23:35;3.78;;;2.40;;
64936;SDS011;51452;47.698;19.050;2023-06-14T10:26:05;3.95;;;2.70;;
64936;SDS011;51452;47.698;19.050;2023-06-14T10:28:30;7.03;;;2.63;;
64936;SDS011;51452;47.698;19.050;2023-06-14T10:33:37;5.35;;;2.88;;
64936;SDS011;51452;47.698;19.050;2023-06-14T10:39:01;5.03;;;2.58;;
64936;SDS011;51452;47.698;19.050;2023-06-14T10:41:30;5.15;;;3.00;;
64936;SDS011;51452;47.698;19.050;2023-06-14T10:46:40;4.40;;;2.90;;
64936;SDS011;51452;47.698;19.050;2023-06-14T10:49:10;6.18;;;2.80;;
64936;SDS011;51452;47.698;19.050;2023-06-14T10:51:41;4.05;;;2.80;;
64936;SDS011;51452;47.698;19.050;2023-06-14T10:54:14;5.93;;;2.58;;
64936;SDS011;51452;47.698;19.050;2023-06-14T10:56:46;5.40;;;2.70;;
64936;SDS011;51452;47.698;19.050;2023-06-14T10:59:13;7.75;;;2.67;;
64936;SDS011;51452;47.698;19.050;2023-06-14T11:02:20;7.07;;;2.65;;
64936;SDS011;51452;47.698;19.050;2023-06-14T11:04:50;3.50;;;2.45;;
64936;SDS011;51452;47.698;19.050;2023-06-14T11:12:49;4.30;;;2.90;;
64936;SDS011;51452;47.698;19.050;2023-06-14T11:15:16;6.03;;;3.17;;
64936;SDS011;51452;47.698;19.050;2023-06-14T11:17:51;4.70;;;2.80;;
64936;SDS011;51452;47.698;19.050;2023-06-14T11:20:18;5.30;;;2.30;;
64936;SDS011;51452;47.698;19.050;2023-06-14T11:22:44;5.35;;;2.90;;
64936;SDS011;51452;47.698;19.050;2023-06-14T11:25:13;5.60;;;2.88;;
64936;SDS011;51452;47.698;19.050;2023-06-14T11:27:42;5.43;;;2.40;;
64936;SDS011;51452;47.698;19.050;2023-06-14T11:30:09;8.77;;;2.67;;
64936;SDS011;51452;47.698;19.050;2023-06-14T11:32:35;4.70;;;2.90;;
64936;SDS011;51452;47.698;19.050;2023-06-14T11:35:04;3.67;;;2.58;;
64936;SDS011;51452;47.698;19.050;2023-06-14T11:37:30;4.65;;;2.53;;
64936;SDS011;51452;47.698;19.050;2023-06-14T11:39:59;6.22;;;2.40;;
64936;SDS011;51452;47.698;19.050;2023-06-14T11:42:28;5.00;;;2.30;;
64936;SDS011;51452;47.698;19.050;2023-06-14T11:44:55;3.17;;;2.40;;
64936;SDS011;51452;47.698;19.050;2023-06-14T11:47:21;3.72;;;2.53;;
64936;SDS011;51452;47.698;19.050;2023-06-14T11:49:47;6.80;;;3.00;;
64936;SDS011;51452;47.698;19.050;2023-06-14T11:52:13;5.05;;;2.50;;
64936;SDS011;51452;47.698;19.050;2023-06-14T11:54:38;4.15;;;2.30;;
64936;SDS011;51452;47.698;19.050;2023-06-14T11:57:07;3.90;;;2.72;;
64936;SDS011;51452;47.698;19.050;2023-06-14T11:59:43;6.75;;;2.42;;
64936;SDS011;51452;47.698;19.050;2023-06-14T12:02:09;6.25;;;2.60;;
64936;SDS011;51452;47.698;19.050;2023-06-14T12:04:40;3.00;;;2.30;;
64936;SDS011;51452;47.698;19.050;2023-06-14T12:07:09;4.97;;;2.50;;
64936;SDS011;51452;47.698;19.050;2023-06-14T12:09:39;3.70;;;2.28;;
64936;SDS011;51452;47.698;19.050;2023-06-14T12:12:04;3.63;;;2.60;;
64936;SDS011;51452;47.698;19.050;2023-06-14T12:14:31;4.80;;;2.60;;
64936;SDS011;51452;47.698;19.050;2023-06-14T12:17:03;3.25;;;2.28;;
64936;SDS011;51452;47.698;19.050;2023-06-14T12:21:57;6.30;;;2.47;;
64936;SDS011;51452;47.698;19.050;2023-06-14T12:24:29;3.45;;;2.03;;
64936;SDS011;51452;47.698;19.050;2023-06-14T12:26:56;3.38;;;2.28;;
64936;SDS011;51452;47.698;19.050;2023-06-14T12:29:24;4.60;;;2.20;;
64936;SDS011;51452;47.698;19.050;2023-06-14T12:31:50;3.20;;;2.00;;
64936;SDS011;51452;47.698;19.050;2023-06-14T12:34:15;4.05;;;2.30;;
64936;SDS011;51452;47.698;19.050;2023-06-14T12:36:41;3.20;;;2.28;;
64936;SDS011;51452;47.698;19.050;2023-06-14T12:39:09;5.93;;;2.30;;
64936;SDS011;51452;47.698;19.050;2023-06-14T12:41:35;7.53;;;2.85;;
64936;SDS011;51452;47.698;19.050;2023-06-14T12:44:01;5.03;;;2.53;;
64936;SDS011;51452;47.698;19.050;2023-06-14T12:46:30;4.35;;;2.30;;
64936;SDS011;51452;47.698;19.050;2023-06-14T12:48:56;3.67;;;2.20;;
64936;SDS011;51452;47.698;19.050;2023-06-14T12:51:21;4.90;;;2.20;;
64936;SDS011;51452;47.698;19.050;2023-06-14T12:53:47;4.07;;;2.55;;
64936;SDS011;51452;47.698;19.050;2023-06-14T12:56:13;6.15;;;3.20;;
64936;SDS011;51452;47.698;19.050;2023-06-14T12:58:39;3.50;;;2.10;;
64936;SDS011;51452;47.698;19.050;2023-06-14T13:01:04;5.00;;;2.50;;
64936;SDS011;51452;47.698;19.050;2023-06-14T13:03:30;4.32;;;2.28;;
64936;SDS011;51452;47.698;19.050;2023-06-14T13:05:55;3.35;;;2.10;;
64936;SDS011;51452;47.698;19.050;2023-06-14T13:08:21;4.70;;;2.35;;
64936;SDS011;51452;47.698;19.050;2023-06-14T13:10:47;5.97;;;2.40;;
64936;SDS011;51452;47.698;19.050;2023-06-14T13:13:12;7.45;;;2.53;;
64936;SDS011;51452;47.698;19.050;2023-06-14T13:15:38;3.40;;;2.20;;
64936;SDS011;51452;47.698;19.050;2023-06-14T13:18:04;4.03;;;2.35;;
64936;SDS011;51452;47.698;19.050;2023-06-14T13:20:31;4.53;;;2.30;;
64936;SDS011;51452;47.698;19.050;2023-06-14T13:22:56;4.57;;;1.95;;
64936;SDS011;51452;47.698;19.050;2023-06-14T13:25:22;3.97;;;2.42;;
64936;SDS011;51452;47.698;19.050;2023-06-14T13:27:48;3.30;;;2.15;;
64936;SDS011;51452;47.698;19.050;2023-06-14T13:30:13;5.63;;;2.20;;
64936;SDS011;51452;47.698;19.050;2023-06-14T13:32:39;4.32;;;2.35;;
64936;SDS011;51452;47.698;19.050;2023-06-14T13:35:05;4.38;;;2.20;;
64936;SDS011;51452;47.698;19.050;2023-06-14T13:37:31;6.63;;;2.33;;
64936;SDS011;51452;47.698;19.050;2023-06-14T13:39:56;6.72;;;2.10;;
64936;SDS011;51452;47.698;19.050;2023-06-14T13:42:22;5.78;;;2.35;;
64936;SDS011;51452;47.698;19.050;2023-06-14T13:44:47;4.43;;;2.35;;
64936;SDS011;51452;47.698;19.050;2023-06-14T13:47:13;3.60;;;2.35;;
64936;SDS011;51452;47.698;19.050;2023-06-14T13:49:38;4.18;;;2.08;;
64936;SDS011;51452;47.698;19.050;2023-06-14T13:52:03;4.38;;;2.33;;
64936;SDS011;51452;47.698;19.050;2023-06-14T13:54:29;4.00;;;2.33;;
64936;SDS011;51452;47.698;19.050;2023-06-14T13:56:55;4.82;;;2.20;;
64936;SDS011;51452;47.698;19.050;2023-06-14T13:59:20;4.43;;;2.35;;
64936;SDS011;51452;47.698;19.050;2023-06-14T14:01:45;4.78;;;2.10;;
64936;SDS011;51452;47.698;19.050;2023-06-14T14:04:11;4.70;;;2.10;;
64936;SDS011;51452;47.698;19.050;2023-06-14T14:06:36;3.72;;;2.22;;
64936;SDS011;51452;47.698;19.050;2023-06-14T14:09:02;3.40;;;2.20;;
64936;SDS011;51452;47.698;19.050;2023-06-14T14:11:28;4.18;;;2.20;;
64936;SDS011;51452;47.698;19.050;2023-06-14T14:13:54;4.70;;;2.47;;
64936;SDS011;51452;47.698;19.050;2023-06-14T14:16:19;4.95;;;2.25;;
64936;SDS011;51452;47.698;19.050;2023-06-14T14:18:45;4.00;;;2.13;;
64936;SDS011;51452;47.698;19.050;2023-06-14T14:21:11;3.75;;;2.03;;
64936;SDS011;51452;47.698;19.050;2023-06-14T14:23:36;5.75;;;2.28;;
64936;SDS011;51452;47.698;19.050;2023-06-14T14:26:02;3.78;;;1.98;;
64936;SDS011;51452;47.698;19.050;2023-06-14T14:28:29;2.83;;;1.98;;
64936;SDS011;51452;47.698;19.050;2023-06-14T14:30:56;2.40;;;1.90;;
64936;SDS011;51452;47.698;19.050;2023-06-14T14:33:21;4.57;;;1.98;;
64936;SDS011;51452;47.698;19.050;2023-06-14T14:35:47;3.50;;;2.17;;
64936;SDS011;51452;47.698;19.050;2023-06-14T14:38:12;5.47;;;2.10;;
64936;SDS011;51452;47.698;19.050;2023-06-14T14:40:40;4.28;;;2.10;;
64936;SDS011;51452;47.698;19.050;2023-06-14T14:43:06;3.03;;;1.73;;
64936;SDS011;51452;47.698;19.050;2023-06-14T14:45:32;4.57;;;2.30;;
64936;SDS011;51452;47.698;19.050;2023-06-14T14:47:57;6.38;;;2.08;;
64936;SDS011;51452;47.698;19.050;2023-06-14T14:50:23;4.30;;;2.22;;
64936;SDS011;51452;47.698;19.050;2023-06-14T14:52:48;3.83;;;2.08;;
64936;SDS011;51452;47.698;19.050;2023-06-14T14:55:13;4.60;;;2.08;;
64936;SDS011;51452;47.698;19.050;2023-06-14T14:57:39;4.22;;;2.08;;
64936;SDS011;51452;47.698;19.050;2023-06-14T15:00:05;3.30;;;1.85;;
64936;SDS011;51452;47.698;19.050;2023-06-14T15:02:31;3.45;;;2.30;;